createdAt,value
2022-11-06T00:00:47.241Z,72.20
2022-11-06T00:03:15.834Z,71.97
2022-11-06T00:06:02.594Z,71.55
2022-11-06T00:08:38.380Z,72.25
2022-11-06T00:11:16.812Z,72.02
2022-11-06T00:13:47.713Z,71.53
2022-11-06T00:16:15.970Z,71.82
2022-11-06T00:18:44.226Z,71.71
2022-11-06T00:21:24.798Z,71.25
2022-11-06T00:23:54.860Z,71.23
2022-11-06T00:26:26.716Z,71.35
2022-11-06T00:28:55.753Z,71.75
2022-11-06T00:31:28.022Z,71.51
2022-11-06T00:33:59.392Z,71.58
2022-11-06T00:36:33.401Z,71.47
2022-11-06T00:39:02.350Z,70.70
2022-11-06T00:41:30.637Z,70.58
2022-11-06T00:44:02.579Z,70.36
2022-11-06T00:46:30.925Z,70.30
2022-11-06T00:48:59.133Z,70.10
2022-11-06T00:51:31.648Z,70.39
2022-11-06T00:54:03.518Z,70.12
2022-11-06T00:56:32.618Z,70.03
2022-11-06T00:59:04.054Z,69.96
2022-11-06T01:01:36.165Z,70.18
2022-11-06T01:04:18.932Z,70.27
2022-11-06T01:06:50.737Z,70.14
2022-11-06T01:09:24.565Z,70.17
2022-11-06T01:12:12.791Z,70.15
2022-11-06T01:14:43.094Z,69.96
2022-11-06T01:17:12.221Z,69.97
2022-11-06T01:19:40.887Z,70.00
2022-11-06T01:22:09.156Z,69.93
2022-11-06T01:24:37.547Z,69.77
2022-11-06T01:27:25.438Z,69.47
2022-11-06T01:29:55.048Z,69.40
2022-11-06T01:32:23.368Z,69.33
2022-11-06T01:34:52.005Z,69.36
2022-11-06T01:37:20.329Z,69.59
2022-11-06T01:39:50.755Z,69.13
2022-11-06T01:42:21.718Z,68.89
2022-11-06T01:45:33.768Z,69.07
2022-11-06T01:48:02.057Z,69.02
2022-11-06T01:50:30.457Z,69.06
2022-11-06T01:53:00.986Z,68.87
2022-11-06T01:55:35.986Z,68.99
2022-11-06T01:58:07.825Z,68.94
2022-11-06T02:00:36.116Z,68.44
2022-11-06T02:03:04.624Z,68.57
2022-11-06T02:05:33.608Z,68.52
2022-11-06T02:08:02.054Z,68.40
2022-11-06T02:10:30.883Z,68.38
2022-11-06T02:13:20.345Z,68.53
2022-11-06T02:16:21.721Z,68.39
2022-11-06T02:20:09.438Z,68.29
2022-11-06T02:23:09.997Z,68.40
2022-11-06T02:26:01.830Z,69.46
2022-11-06T02:28:37.543Z,69.13
2022-11-06T02:31:17.450Z,69.07
2022-11-06T02:33:55.181Z,69.15
2022-11-06T02:36:32.785Z,69.06
2022-11-06T02:39:06.810Z,69.36
2022-11-06T02:41:41.075Z,69.39
2022-11-06T02:44:15.277Z,69.13
2022-11-06T02:46:48.766Z,69.49
2022-11-06T02:49:53.040Z,69.63
2022-11-06T02:52:29.450Z,70.10
2022-11-06T02:55:07.788Z,70.41
2022-11-06T02:57:42.036Z,70.36
2022-11-06T03:00:15.509Z,70.59
2022-11-06T03:02:52.019Z,70.46
2022-11-06T03:05:32.206Z,70.61
2022-11-06T03:08:16.017Z,70.85
2022-11-06T03:11:23.687Z,71.11
2022-11-06T03:14:19.916Z,71.23
2022-11-06T03:17:20.922Z,70.89
2022-11-06T03:20:06.879Z,71.08
2022-11-06T03:23:03.644Z,71.11
2022-11-06T03:25:56.742Z,71.37
2022-11-06T03:28:36.865Z,71.37
2022-11-06T03:31:15.644Z,71.57
2022-11-06T03:33:53.009Z,71.70
2022-11-06T03:36:59.506Z,71.61
2022-11-06T03:39:35.162Z,71.96
2022-11-06T03:42:15.802Z,72.14
2022-11-06T03:44:52.632Z,72.34
2022-11-06T03:47:33.169Z,71.95
2022-11-06T03:50:11.111Z,71.90
2022-11-06T03:52:49.511Z,72.06
2022-11-06T03:55:24.949Z,72.68
2022-11-06T03:58:01.756Z,72.40
2022-11-06T04:00:33.951Z,72.40
2022-11-06T04:03:08.348Z,71.92
2022-11-06T04:05:46.390Z,71.94
2022-11-06T04:08:35.841Z,72.26
2022-11-06T04:11:25.553Z,72.39
2022-11-06T04:13:57.758Z,71.99
2022-11-06T04:16:39.375Z,71.79
2022-11-06T04:19:33.863Z,71.89
2022-11-06T04:22:20.004Z,72.20
2022-11-06T04:25:18.500Z,72.15
2022-11-06T04:28:20.730Z,72.08
2022-11-06T04:31:10.070Z,71.98
2022-11-06T04:34:46.375Z,72.35
2022-11-06T04:37:49.709Z,72.24
2022-11-06T04:40:27.609Z,72.07
2022-11-06T04:43:28.926Z,71.74
2022-11-06T04:45:59.967Z,71.54
2022-11-06T04:48:29.815Z,71.71
2022-11-06T04:51:03.761Z,72.05
2022-11-06T04:53:33.622Z,72.20
2022-11-06T04:56:12.325Z,71.99
2022-11-06T04:58:40.586Z,71.63
2022-11-06T05:01:08.930Z,71.94
2022-11-06T05:03:37.227Z,71.61
2022-11-06T05:06:05.937Z,72.00
2022-11-06T05:08:34.133Z,71.87
2022-11-06T05:11:02.322Z,71.62
2022-11-06T05:13:30.504Z,71.52
2022-11-06T05:16:00.311Z,71.72
2022-11-06T05:18:28.822Z,71.53
2022-11-06T05:21:20.618Z,71.61
2022-11-06T05:23:48.966Z,71.35
2022-11-06T05:26:17.518Z,71.40
2022-11-06T05:28:45.826Z,71.18
2022-11-06T05:31:14.099Z,71.05
2022-11-06T05:33:42.366Z,71.07
2022-11-06T05:36:10.732Z,71.01
2022-11-06T05:38:39.093Z,70.74
2022-11-06T05:41:07.561Z,70.68
2022-11-06T05:43:35.898Z,70.91
2022-11-06T05:46:04.264Z,70.95
2022-11-06T05:48:32.571Z,70.88
2022-11-06T05:51:09.778Z,70.70
2022-11-06T05:53:38.220Z,70.40
2022-11-06T05:56:07.242Z,70.42
2022-11-06T05:58:35.484Z,70.48
2022-11-06T06:01:04.428Z,70.65
2022-11-06T06:03:32.682Z,70.59
2022-11-06T06:06:01.011Z,70.22
2022-11-06T06:08:29.209Z,70.30
2022-11-06T06:10:57.448Z,70.04
2022-11-06T06:13:25.739Z,69.78
2022-11-06T06:15:53.928Z,70.09
2022-11-06T06:18:22.229Z,69.98
2022-11-06T06:20:50.426Z,69.91
2022-11-06T06:23:18.701Z,69.44
2022-11-06T06:25:46.897Z,69.23
2022-11-06T06:28:15.586Z,69.17
2022-11-06T06:30:44.035Z,69.30
2022-11-06T06:33:12.260Z,69.28
2022-11-06T06:35:40.562Z,69.17
2022-11-06T06:38:08.788Z,68.99
2022-11-06T06:40:37.043Z,68.84
2022-11-06T06:43:05.250Z,68.77
2022-11-06T06:45:33.546Z,68.83
2022-11-06T06:48:05.938Z,68.83
2022-11-06T06:50:34.274Z,68.90
2022-11-06T06:53:02.652Z,68.66
2022-11-06T06:55:30.891Z,68.34
2022-11-06T06:58:00.451Z,68.43
2022-11-06T07:00:29.477Z,68.40
2022-11-06T07:02:57.836Z,68.93
2022-11-06T07:05:26.047Z,68.76
2022-11-06T07:07:54.348Z,68.67
2022-11-06T07:10:22.628Z,68.23
2022-11-06T07:12:50.921Z,68.12
2022-11-06T07:15:19.273Z,68.29
2022-11-06T07:17:47.535Z,68.20
2022-11-06T07:20:15.786Z,67.93
2022-11-06T07:22:44.447Z,68.23
2022-11-06T07:25:12.722Z,67.90
2022-11-06T07:27:41.553Z,68.07
2022-11-06T07:30:10.790Z,67.78
2022-11-06T07:32:38.997Z,67.57
2022-11-06T07:35:07.834Z,67.60
2022-11-06T07:37:36.894Z,67.09
2022-11-06T07:40:06.080Z,67.05
2022-11-06T07:42:35.166Z,67.45
2022-11-06T07:45:06.690Z,67.36
2022-11-06T07:47:34.987Z,67.23
2022-11-06T07:50:03.807Z,67.06
2022-11-06T07:52:33.841Z,67.19
2022-11-06T07:55:02.125Z,66.78
2022-11-06T07:57:30.366Z,66.62
2022-11-06T07:59:58.554Z,66.36
2022-11-06T08:02:26.868Z,66.45
2022-11-06T08:04:55.110Z,66.93
2022-11-06T08:07:23.347Z,66.05
2022-11-06T08:09:51.784Z,65.71
2022-11-06T08:12:20.264Z,65.27
2022-11-06T08:14:48.475Z,65.50
2022-11-06T08:17:16.729Z,65.36
2022-11-06T08:19:45.003Z,64.40
2022-11-06T08:22:13.386Z,64.86
2022-11-06T08:24:41.601Z,64.91
2022-11-06T08:27:10.102Z,64.92
2022-11-06T08:29:41.575Z,64.85
2022-11-06T08:32:10.101Z,64.76
2022-11-06T08:34:38.373Z,64.42
2022-11-06T08:37:06.553Z,64.12
2022-11-06T08:39:34.844Z,63.03
2022-11-06T08:42:05.593Z,63.38
2022-11-06T08:44:33.963Z,62.27
2022-11-06T08:47:02.215Z,62.66
2022-11-06T08:49:30.533Z,62.48
2022-11-06T08:51:58.720Z,61.98
2022-11-06T08:54:27.237Z,62.31
2022-11-06T08:56:57.018Z,61.62
2022-11-06T08:59:25.253Z,61.88
2022-11-06T09:01:53.739Z,61.63
2022-11-06T09:04:22.121Z,61.67
2022-11-06T09:06:50.360Z,62.22
2022-11-06T09:09:18.749Z,62.10
2022-11-06T09:11:47.068Z,61.84
2022-11-06T09:14:15.250Z,61.47
2022-11-06T09:16:43.624Z,61.91
2022-11-06T09:19:11.829Z,61.65
2022-11-06T09:21:40.568Z,60.98
2022-11-06T09:24:09.301Z,61.26
2022-11-06T09:26:37.636Z,61.69
2022-11-06T09:29:05.990Z,61.32
2022-11-06T09:31:34.233Z,61.04
2022-11-06T09:34:03.265Z,60.96
2022-11-06T09:36:31.876Z,60.56
2022-11-06T09:39:00.143Z,60.85
2022-11-06T09:41:52.959Z,61.62
2022-11-06T09:44:47.980Z,60.54
2022-11-06T09:47:24.995Z,60.99
2022-11-06T09:49:56.284Z,60.92
2022-11-06T09:52:49.380Z,59.37
2022-11-06T09:55:26.774Z,58.71
2022-11-06T09:58:04.248Z,59.23
2022-11-06T10:00:32.801Z,59.50
2022-11-06T10:03:11.359Z,59.48
2022-11-06T10:05:41.583Z,59.92
2022-11-06T10:08:22.288Z,59.94
2022-11-06T10:11:02.500Z,59.66
2022-11-06T10:13:53.484Z,60.80
2022-11-06T10:16:53.083Z,60.62
2022-11-06T10:19:55.563Z,60.20
2022-11-06T10:22:45.421Z,59.92
2022-11-06T10:25:24.821Z,60.01
2022-11-06T10:28:03.358Z,59.79
2022-11-06T10:30:50.327Z,59.76
2022-11-06T10:33:28.680Z,59.06
2022-11-06T10:36:20.434Z,58.29
2022-11-06T10:38:50.503Z,57.71
2022-11-06T10:41:24.512Z,58.21
2022-11-06T10:43:57.440Z,59.14
2022-11-06T10:46:36.172Z,59.11
2022-11-06T10:49:15.948Z,58.66
2022-11-06T10:52:23.836Z,58.78
2022-11-06T10:55:16.492Z,58.24
2022-11-06T10:57:55.581Z,58.28
2022-11-06T11:00:23.950Z,58.60
2022-11-06T11:02:57.225Z,58.57
2022-11-06T11:05:29.629Z,58.96
2022-11-06T11:07:58.031Z,58.53
2022-11-06T11:10:32.089Z,59.31
2022-11-06T11:13:08.082Z,59.88
2022-11-06T11:15:47.796Z,60.15
2022-11-06T11:18:17.900Z,60.46
2022-11-06T11:20:49.506Z,60.14
2022-11-06T11:23:26.031Z,60.17
2022-11-06T11:26:12.400Z,60.22
2022-11-06T11:28:41.581Z,60.44
2022-11-06T11:31:17.256Z,60.49
2022-11-06T11:33:53.212Z,60.49
2022-11-06T11:36:21.532Z,60.64
2022-11-06T11:38:50.599Z,60.90
2022-11-06T11:41:25.767Z,61.43
2022-11-06T11:44:15.784Z,61.09
2022-11-06T11:46:55.205Z,61.52
2022-11-06T11:49:31.059Z,61.46
2022-11-06T11:52:05.375Z,61.47
2022-11-06T11:54:37.203Z,61.62
2022-11-06T11:57:09.062Z,61.62
2022-11-06T11:59:57.105Z,61.82
2022-11-06T12:02:40.928Z,62.18
2022-11-06T12:05:15.101Z,63.15
2022-11-06T12:07:55.204Z,62.61
2022-11-06T12:10:31.126Z,62.10
2022-11-06T12:13:04.156Z,62.19
2022-11-06T12:15:47.449Z,61.33
2022-11-06T12:18:29.656Z,60.85
2022-11-06T12:21:17.974Z,59.87
2022-11-06T12:24:38.788Z,59.52
2022-11-06T12:27:23.419Z,59.22
2022-11-06T12:30:11.241Z,59.42
2022-11-06T12:32:49.192Z,59.69
2022-11-06T12:35:33.129Z,59.79
2022-11-06T12:38:07.645Z,59.95
2022-11-06T12:40:40.318Z,59.37
2022-11-06T12:43:29.973Z,60.00
2022-11-06T12:46:36.531Z,60.68
2022-11-06T12:49:41.433Z,61.37
2022-11-06T12:52:41.682Z,61.23
2022-11-06T12:55:33.596Z,61.67
2022-11-06T12:58:51.011Z,61.77
2022-11-06T13:01:56.794Z,62.93
2022-11-06T13:04:50.579Z,63.00
2022-11-06T13:07:59.369Z,63.81
2022-11-06T13:10:59.993Z,63.95
2022-11-06T13:14:10.749Z,64.62
2022-11-06T13:17:25.625Z,64.73
2022-11-06T13:20:17.116Z,65.44
2022-11-06T13:23:04.348Z,66.18
2022-11-06T13:25:52.166Z,65.84
2022-11-06T13:28:44.167Z,66.54
2022-11-06T13:31:16.578Z,66.74
2022-11-06T13:33:56.674Z,67.33
2022-11-06T13:36:27.137Z,68.82
2022-11-06T13:39:18.329Z,67.83
2022-11-06T13:41:46.585Z,68.06
2022-11-06T13:44:18.070Z,68.69
2022-11-06T13:47:13.048Z,68.66
2022-11-06T13:50:22.458Z,68.58
2022-11-06T13:53:24.915Z,68.92
2022-11-06T13:56:14.389Z,69.14
2022-11-06T13:59:06.898Z,69.95
2022-11-06T14:01:59.817Z,69.46
2022-11-06T14:04:28.230Z,70.17
2022-11-06T14:07:00.964Z,70.72
2022-11-06T14:09:34.340Z,70.85
2022-11-06T14:12:10.042Z,70.75
2022-11-06T14:14:42.605Z,71.38
2022-11-06T14:17:16.743Z,71.35
2022-11-06T14:19:51.216Z,71.82
2022-11-06T14:22:32.885Z,71.68
2022-11-06T14:25:02.328Z,71.78
2022-11-06T14:27:51.279Z,72.92
2022-11-06T14:31:05.283Z,73.43
2022-11-06T14:33:41.881Z,72.81
2022-11-06T14:36:26.323Z,72.80
2022-11-06T14:38:55.337Z,72.69
2022-11-06T14:41:35.604Z,73.05
2022-11-06T14:44:19.931Z,73.29
2022-11-06T14:46:56.466Z,73.23
2022-11-06T14:49:33.457Z,73.64
2022-11-06T14:52:13.979Z,74.31
2022-11-06T14:55:05.593Z,73.99
2022-11-06T14:57:49.997Z,74.61
2022-11-06T15:00:50.909Z,74.11
2022-11-06T15:03:38.679Z,74.17
2022-11-06T15:06:34.486Z,74.76
2022-11-06T15:09:12.873Z,74.61
2022-11-06T15:11:47.651Z,74.62
2022-11-06T15:14:16.185Z,74.49
2022-11-06T15:16:50.795Z,75.04
2022-11-06T15:19:27.729Z,75.35
2022-11-06T15:22:38.396Z,74.76
2022-11-06T15:25:28.346Z,74.53
2022-11-06T15:28:00.338Z,75.23
2022-11-06T15:30:30.490Z,74.91
2022-11-06T15:33:04.583Z,75.27
2022-11-06T15:35:34.968Z,75.94
2022-11-06T15:38:21.736Z,75.14
2022-11-06T15:40:53.831Z,75.99
2022-11-06T15:43:30.992Z,75.79
2022-11-06T15:46:12.030Z,76.71
2022-11-06T15:48:40.451Z,76.92
2022-11-06T15:51:27.779Z,76.59
2022-11-06T15:53:56.154Z,76.80
2022-11-06T15:56:34.351Z,76.96
2022-11-06T15:59:17.027Z,76.62
2022-11-06T16:01:49.648Z,76.06
2022-11-06T16:04:25.248Z,76.36
2022-11-06T16:06:55.297Z,77.18
2022-11-06T16:09:26.785Z,77.09
2022-11-06T16:11:55.922Z,77.36
2022-11-06T16:14:24.568Z,77.05
2022-11-06T16:16:56.444Z,77.20
2022-11-06T16:19:37.207Z,77.18
2022-11-06T16:22:14.716Z,77.81
2022-11-06T16:24:58.198Z,77.08
2022-11-06T16:27:27.415Z,77.49
2022-11-06T16:30:03.111Z,77.54
2022-11-06T16:32:39.157Z,77.93
2022-11-06T16:35:31.807Z,77.55
2022-11-06T16:38:45.580Z,77.94
2022-11-06T16:41:37.180Z,77.39
2022-11-06T16:44:31.732Z,77.70
2022-11-06T16:47:23.027Z,78.28
2022-11-06T16:49:54.457Z,77.77
2022-11-06T16:52:30.655Z,77.27
2022-11-06T16:55:11.380Z,77.44
2022-11-06T16:57:48.447Z,78.23
2022-11-06T17:00:19.633Z,77.90
2022-11-06T17:02:56.371Z,77.67
2022-11-06T17:05:29.979Z,77.63
2022-11-06T17:08:23.564Z,77.91
2022-11-06T17:11:13.082Z,78.25
2022-11-06T17:13:44.379Z,77.76
2022-11-06T17:16:22.793Z,78.59
2022-11-06T17:18:52.107Z,78.09
2022-11-06T17:21:24.587Z,78.31
2022-11-06T17:23:53.434Z,77.94
2022-11-06T17:26:28.441Z,78.07
2022-11-06T17:28:58.703Z,78.38
2022-11-06T17:31:27.262Z,77.76
2022-11-06T17:33:55.536Z,78.61
2022-11-06T17:36:29.842Z,78.04
2022-11-06T17:38:59.195Z,77.84
2022-11-06T17:41:30.668Z,78.12
2022-11-06T17:44:08.209Z,77.86
2022-11-06T17:46:45.124Z,78.08
2022-11-06T17:49:17.927Z,77.78
2022-11-06T17:51:53.422Z,77.62
2022-11-06T17:54:28.282Z,77.84
2022-11-06T17:56:57.346Z,78.24
2022-11-06T17:59:26.193Z,78.88
2022-11-06T18:01:55.156Z,78.26
2022-11-06T18:04:26.889Z,77.75
2022-11-06T18:06:55.129Z,77.57
2022-11-06T18:09:24.306Z,78.23
2022-11-06T18:11:54.751Z,78.33
2022-11-06T18:14:25.065Z,78.37
2022-11-06T18:16:54.148Z,78.19
2022-11-06T18:19:24.834Z,78.38
2022-11-06T18:21:55.540Z,78.51
2022-11-06T18:24:24.643Z,78.42
2022-11-06T18:26:52.967Z,78.52
2022-11-06T18:29:21.235Z,78.13
2022-11-06T18:31:49.466Z,78.02
2022-11-06T18:34:21.225Z,78.35
2022-11-06T18:36:50.814Z,78.59
2022-11-06T18:39:19.909Z,78.27
2022-11-06T18:41:48.422Z,78.30
2022-11-06T18:44:18.339Z,78.55
2022-11-06T18:46:47.228Z,78.20
2022-11-06T18:49:15.741Z,77.88
2022-11-06T18:51:44.275Z,78.02
2022-11-06T18:54:12.935Z,77.72
2022-11-06T18:56:41.472Z,77.73
2022-11-06T18:59:16.064Z,77.68
2022-11-06T19:01:44.470Z,77.47
2022-11-06T19:04:13.013Z,77.68
2022-11-06T19:06:41.316Z,78.13
2022-11-06T19:09:10.291Z,78.41
2022-11-06T19:11:38.911Z,78.31
2022-11-06T19:14:07.217Z,78.15
2022-11-06T19:16:35.538Z,77.91
2022-11-06T19:19:05.916Z,77.49
2022-11-06T19:21:35.344Z,77.38
2022-11-06T19:24:05.631Z,77.65
2022-11-06T19:26:37.424Z,77.53
2022-11-06T19:29:08.275Z,77.66
2022-11-06T19:31:37.920Z,77.99
2022-11-06T19:34:08.220Z,77.48
2022-11-06T19:36:36.874Z,77.51
2022-11-06T19:39:06.895Z,77.68
2022-11-06T19:41:35.227Z,77.42
2022-11-06T19:44:03.505Z,77.58
2022-11-06T19:46:35.901Z,77.42
2022-11-06T19:49:07.070Z,77.35
2022-11-06T19:51:37.744Z,77.49
2022-11-06T19:54:06.107Z,77.68
2022-11-06T19:56:34.431Z,78.10
2022-11-06T19:59:03.497Z,77.80
2022-11-06T20:01:34.574Z,77.46
2022-11-06T20:04:02.999Z,77.88
2022-11-06T20:06:31.282Z,78.00
2022-11-06T20:08:59.574Z,78.21
2022-11-06T20:11:27.912Z,77.80
2022-11-06T20:13:56.157Z,77.60
2022-11-06T20:16:24.587Z,77.41
2022-11-06T20:18:56.060Z,77.52
2022-11-06T20:21:27.886Z,77.67
2022-11-06T20:23:57.337Z,77.61
2022-11-06T20:26:25.862Z,77.59
2022-11-06T20:28:54.213Z,77.55
2022-11-06T20:31:23.305Z,77.67
2022-11-06T20:33:52.292Z,77.91
2022-11-06T20:36:27.679Z,77.79
2022-11-06T20:38:59.454Z,78.07
2022-11-06T20:41:29.752Z,77.78
2022-11-06T20:43:58.430Z,77.54
2022-11-06T20:46:26.821Z,77.63
2022-11-06T20:48:55.126Z,77.61
2022-11-06T20:51:26.852Z,78.26
2022-11-06T20:53:55.220Z,77.85
2022-11-06T20:56:27.364Z,77.88
2022-11-06T20:58:56.623Z,77.76
2022-11-06T21:01:28.064Z,77.66
2022-11-06T21:03:58.339Z,77.53
2022-11-06T21:06:28.025Z,77.46
2022-11-06T21:08:56.941Z,77.01
2022-11-06T21:11:28.021Z,76.81
2022-11-06T21:13:56.949Z,76.20
2022-11-06T21:16:32.804Z,76.00
2022-11-06T21:19:03.307Z,75.71
2022-11-06T21:21:34.833Z,75.95
2022-11-06T21:24:05.000Z,75.62
2022-11-06T21:26:37.326Z,75.36
2022-11-06T21:29:09.050Z,75.24
2022-11-06T21:31:43.948Z,75.09
2022-11-06T21:34:18.791Z,74.77
2022-11-06T21:36:47.437Z,74.67
2022-11-06T21:39:20.041Z,74.30
2022-11-06T21:41:48.327Z,74.25
2022-11-06T21:44:18.200Z,74.45
2022-11-06T21:46:46.714Z,74.75
2022-11-06T21:49:14.961Z,74.66
2022-11-06T21:51:43.499Z,74.41
2022-11-06T21:54:31.116Z,74.84
2022-11-06T21:56:59.395Z,74.54
2022-11-06T21:59:29.329Z,74.36
2022-11-06T22:01:58.042Z,74.18
2022-11-06T22:04:26.408Z,74.23
2022-11-06T22:06:54.706Z,74.19
2022-11-06T22:09:25.577Z,74.47
2022-11-06T22:11:54.311Z,74.15
2022-11-06T22:14:22.613Z,74.46
2022-11-06T22:16:51.091Z,74.72
2022-11-06T22:19:19.355Z,74.84
2022-11-06T22:21:47.678Z,74.79
2022-11-06T22:24:16.194Z,74.27
2022-11-06T22:26:44.414Z,74.43
2022-11-06T22:29:14.536Z,74.61
2022-11-06T22:31:42.818Z,74.86
2022-11-06T22:34:13.095Z,75.07
2022-11-06T22:36:41.924Z,74.87
2022-11-06T22:39:12.080Z,75.04
2022-11-06T22:41:40.767Z,74.74
2022-11-06T22:44:09.985Z,74.56
2022-11-06T22:46:38.920Z,74.62
2022-11-06T22:49:07.295Z,74.72
2022-11-06T22:51:35.837Z,74.36
2022-11-06T22:54:04.809Z,74.10
2022-11-06T22:56:33.721Z,74.16
2022-11-06T22:59:07.803Z,73.91
2022-11-06T23:01:41.938Z,74.27
2022-11-06T23:04:17.190Z,74.30
2022-11-06T23:06:45.839Z,74.46
2022-11-06T23:09:15.083Z,74.03
2022-11-06T23:11:46.198Z,73.96
2022-11-06T23:14:14.497Z,74.10
2022-11-06T23:16:57.708Z,74.52
2022-11-06T23:19:29.055Z,74.45
2022-11-06T23:22:53.424Z,74.38
2022-11-06T23:25:21.825Z,74.48
2022-11-06T23:27:50.239Z,74.79
2022-11-06T23:30:18.716Z,74.74
2022-11-06T23:32:47.342Z,74.73
2022-11-06T23:35:17.195Z,75.18
2022-11-06T23:37:45.971Z,74.98
2022-11-06T23:40:14.605Z,75.04
2022-11-06T23:54:16.229Z,74.34
2022-11-06T23:56:44.526Z,74.11
2022-11-06T23:59:12.959Z,74.25
